sensor_id;sensor_type;location;lat;lon;timestamp;temperature;humidity
18365;DHT22;9309;52.126;11.616;2023-09-18T00:01:17;18.50;76.50
18365;DHT22;9309;52.126;11.616;2023-09-18T00:03:45;18.50;76.40
18365;DHT22;9309;52.126;11.616;2023-09-18T00:06:13;18.50;76.50
18365;DHT22;9309;52.126;11.616;2023-09-18T00:08:40;18.50;76.40
18365;DHT22;9309;52.126;11.616;2023-09-18T00:11:07;18.40;76.70
18365;DHT22;9309;52.126;11.616;2023-09-18T00:13:35;18.30;77.30
18365;DHT22;9309;52.126;11.616;2023-09-18T00:16:02;18.20;77.50
18365;DHT22;9309;52.126;11.616;2023-09-18T00:18:29;18.10;78.10
18365;DHT22;9309;52.126;11.616;2023-09-18T00:20:56;18.00;78.40
18365;DHT22;9309;52.126;11.616;2023-09-18T00:23:24;18.00;78.90
18365;DHT22;9309;52.126;11.616;2023-09-18T00:25:51;18.00;78.00
18365;DHT22;9309;52.126;11.616;2023-09-18T00:28:18;18.00;78.30
18365;DHT22;9309;52.126;11.616;2023-09-18T00:30:49;18.00;78.20
18365;DHT22;9309;52.126;11.616;2023-09-18T00:33:17;18.10;78.20
18365;DHT22;9309;52.126;11.616;2023-09-18T00:35:48;18.10;77.60
18365;DHT22;9309;52.126;11.616;2023-09-18T00:38:15;18.10;77.60
18365;DHT22;9309;52.126;11.616;2023-09-18T00:40:43;18.20;77.30
18365;DHT22;9309;52.126;11.616;2023-09-18T00:43:10;18.10;77.30
18365;DHT22;9309;52.126;11.616;2023-09-18T00:45:38;18.10;77.60
18365;DHT22;9309;52.126;11.616;2023-09-18T00:48:06;18.00;77.90
18365;DHT22;9309;52.126;11.616;2023-09-18T00:50:32;18.00;78.40
18365;DHT22;9309;52.126;11.616;2023-09-18T00:53:01;17.90;79.00
18365;DHT22;9309;52.126;11.616;2023-09-18T00:55:30;17.80;79.30
18365;DHT22;9309;52.126;11.616;2023-09-18T00:57:59;17.70;79.50
18365;DHT22;9309;52.126;11.616;2023-09-18T01:00:26;17.90;78.60
18365;DHT22;9309;52.126;11.616;2023-09-18T01:02:53;18.00;78.00
18365;DHT22;9309;52.126;11.616;2023-09-18T01:05:19;18.10;77.90
18365;DHT22;9309;52.126;11.616;2023-09-18T01:07:46;18.00;78.00
18365;DHT22;9309;52.126;11.616;2023-09-18T01:10:14;17.80;79.10
18365;DHT22;9309;52.126;11.616;2023-09-18T01:12:44;17.70;79.50
18365;DHT22;9309;52.126;11.616;2023-09-18T01:15:14;17.70;79.20
18365;DHT22;9309;52.126;11.616;2023-09-18T01:17:42;17.90;77.50
18365;DHT22;9309;52.126;11.616;2023-09-18T01:20:10;17.80;77.80
18365;DHT22;9309;52.126;11.616;2023-09-18T01:22:38;17.90;77.40
18365;DHT22;9309;52.126;11.616;2023-09-18T01:25:05;17.90;77.10
18365;DHT22;9309;52.126;11.616;2023-09-18T01:27:32;18.00;76.80
18365;DHT22;9309;52.126;11.616;2023-09-18T01:29:59;18.00;76.40
18365;DHT22;9309;52.126;11.616;2023-09-18T01:32:26;18.00;76.60
18365;DHT22;9309;52.126;11.616;2023-09-18T01:34:56;18.00;76.80
18365;DHT22;9309;52.126;11.616;2023-09-18T01:37:23;17.90;76.90
18365;DHT22;9309;52.126;11.616;2023-09-18T01:39:52;17.90;76.80
18365;DHT22;9309;52.126;11.616;2023-09-18T01:42:18;17.80;77.60
18365;DHT22;9309;52.126;11.616;2023-09-18T01:44:46;17.90;77.20
18365;DHT22;9309;52.126;11.616;2023-09-18T01:47:14;18.00;76.90
18365;DHT22;9309;52.126;11.616;2023-09-18T01:49:41;18.00;76.60
18365;DHT22;9309;52.126;11.616;2023-09-18T01:52:08;18.00;76.40
18365;DHT22;9309;52.126;11.616;2023-09-18T01:54:35;18.00;76.60
18365;DHT22;9309;52.126;11.616;2023-09-18T01:57:04;18.00;77.00
18365;DHT22;9309;52.126;11.616;2023-09-18T01:59:33;17.90;76.80
18365;DHT22;9309;52.126;11.616;2023-09-18T02:02:01;17.80;77.40
18365;DHT22;9309;52.126;11.616;2023-09-18T02:04:29;17.80;77.90
18365;DHT22;9309;52.126;11.616;2023-09-18T02:06:56;17.90;77.50
18365;DHT22;9309;52.126;11.616;2023-09-18T02:09:23;18.00;77.00
18365;DHT22;9309;52.126;11.616;2023-09-18T02:11:50;18.00;76.80
18365;DHT22;9309;52.126;11.616;2023-09-18T02:14:18;18.00;77.20
18365;DHT22;9309;52.126;11.616;2023-09-18T02:16:45;17.90;77.50
18365;DHT22;9309;52.126;11.616;2023-09-18T02:19:12;18.00;77.40
18365;DHT22;9309;52.126;11.616;2023-09-18T02:21:39;17.90;77.30
18365;DHT22;9309;52.126;11.616;2023-09-18T02:24:06;17.90;77.40
18365;DHT22;9309;52.126;11.616;2023-09-18T02:26:33;17.80;77.80
18365;DHT22;9309;52.126;11.616;2023-09-18T02:29:01;17.70;78.20
18365;DHT22;9309;52.126;11.616;2023-09-18T02:31:31;17.70;78.40
18365;DHT22;9309;52.126;11.616;2023-09-18T02:33:58;17.60;78.80
18365;DHT22;9309;52.126;11.616;2023-09-18T02:36:25;17.60;78.80
18365;DHT22;9309;52.126;11.616;2023-09-18T02:38:51;17.50;79.40
18365;DHT22;9309;52.126;11.616;2023-09-18T02:41:18;17.50;79.40
18365;DHT22;9309;52.126;11.616;2023-09-18T02:43:46;17.50;79.40
18365;DHT22;9309;52.126;11.616;2023-09-18T02:46:12;17.50;79.50
18365;DHT22;9309;52.126;11.616;2023-09-18T02:48:40;17.50;79.10
18365;DHT22;9309;52.126;11.616;2023-09-18T02:51:07;17.40;79.60
18365;DHT22;9309;52.126;11.616;2023-09-18T02:53:34;17.50;79.00
18365;DHT22;9309;52.126;11.616;2023-09-18T02:56:01;17.40;79.70
18365;DHT22;9309;52.126;11.616;2023-09-18T02:58:28;17.40;79.80
18365;DHT22;9309;52.126;11.616;2023-09-18T03:00:56;17.40;79.90
18365;DHT22;9309;52.126;11.616;2023-09-18T03:03:23;17.20;80.30
18365;DHT22;9309;52.126;11.616;2023-09-18T03:05:52;17.30;80.00
18365;DHT22;9309;52.126;11.616;2023-09-18T03:08:19;17.40;79.60
18365;DHT22;9309;52.126;11.616;2023-09-18T03:10:46;17.30;80.00
18365;DHT22;9309;52.126;11.616;2023-09-18T03:13:13;17.20;80.60
18365;DHT22;9309;52.126;11.616;2023-09-18T03:15:41;17.30;80.20
18365;DHT22;9309;52.126;11.616;2023-09-18T03:18:10;17.30;80.10
18365;DHT22;9309;52.126;11.616;2023-09-18T03:20:37;17.30;80.30
18365;DHT22;9309;52.126;11.616;2023-09-18T03:23:06;17.10;81.50
18365;DHT22;9309;52.126;11.616;2023-09-18T03:25:32;17.00;81.40
18365;DHT22;9309;52.126;11.616;2023-09-18T03:27:59;16.90;81.90
18365;DHT22;9309;52.126;11.616;2023-09-18T03:30:30;16.90;82.30
18365;DHT22;9309;52.126;11.616;2023-09-18T03:32:56;16.90;82.10
18365;DHT22;9309;52.126;11.616;2023-09-18T03:35:24;17.00;81.60
18365;DHT22;9309;52.126;11.616;2023-09-18T03:37:52;17.10;81.00
18365;DHT22;9309;52.126;11.616;2023-09-18T03:40:21;17.20;80.80
18365;DHT22;9309;52.126;11.616;2023-09-18T03:42:48;17.20;80.70
18365;DHT22;9309;52.126;11.616;2023-09-18T03:45:15;17.10;80.90
18365;DHT22;9309;52.126;11.616;2023-09-18T03:47:44;17.10;81.00
18365;DHT22;9309;52.126;11.616;2023-09-18T03:50:11;17.10;81.10
18365;DHT22;9309;52.126;11.616;2023-09-18T03:52:38;17.10;81.30
18365;DHT22;9309;52.126;11.616;2023-09-18T03:55:06;17.10;81.20
18365;DHT22;9309;52.126;11.616;2023-09-18T03:57:35;17.00;81.30
18365;DHT22;9309;52.126;11.616;2023-09-18T04:00:03;17.10;81.10
18365;DHT22;9309;52.126;11.616;2023-09-18T04:02:37;17.10;80.70
18365;DHT22;9309;52.126;11.616;2023-09-18T04:05:04;17.10;80.60
18365;DHT22;9309;52.126;11.616;2023-09-18T04:07:32;17.10;80.90
18365;DHT22;9309;52.126;11.616;2023-09-18T04:10:00;17.20;80.30
18365;DHT22;9309;52.126;11.616;2023-09-18T04:12:28;17.10;80.40
18365;DHT22;9309;52.126;11.616;2023-09-18T04:14:56;17.00;81.30
18365;DHT22;9309;52.126;11.616;2023-09-18T04:17:22;16.90;81.80
18365;DHT22;9309;52.126;11.616;2023-09-18T04:19:50;16.90;82.00
18365;DHT22;9309;52.126;11.616;2023-09-18T04:22:17;17.00;81.70
18365;DHT22;9309;52.126;11.616;2023-09-18T04:24:43;16.90;81.50
18365;DHT22;9309;52.126;11.616;2023-09-18T04:27:10;16.90;81.30
18365;DHT22;9309;52.126;11.616;2023-09-18T04:29:37;16.90;81.50
18365;DHT22;9309;52.126;11.616;2023-09-18T04:32:05;17.10;81.00
18365;DHT22;9309;52.126;11.616;2023-09-18T04:34:32;17.00;81.10
18365;DHT22;9309;52.126;11.616;2023-09-18T04:37:00;17.00;80.90
18365;DHT22;9309;52.126;11.616;2023-09-18T04:39:29;17.00;80.40
18365;DHT22;9309;52.126;11.616;2023-09-18T04:42:00;17.00;80.70
18365;DHT22;9309;52.126;11.616;2023-09-18T04:44:29;17.20;79.90
18365;DHT22;9309;52.126;11.616;2023-09-18T04:46:56;17.10;79.90
18365;DHT22;9309;52.126;11.616;2023-09-18T04:49:24;17.00;80.40
18365;DHT22;9309;52.126;11.616;2023-09-18T04:51:51;16.90;80.60
18365;DHT22;9309;52.126;11.616;2023-09-18T04:54:18;16.90;80.50
18365;DHT22;9309;52.126;11.616;2023-09-18T04:56:45;17.10;80.20
18365;DHT22;9309;52.126;11.616;2023-09-18T04:59:11;17.20;79.80
18365;DHT22;9309;52.126;11.616;2023-09-18T05:01:38;17.00;80.20
18365;DHT22;9309;52.126;11.616;2023-09-18T05:04:05;17.00;80.40
18365;DHT22;9309;52.126;11.616;2023-09-18T05:06:33;17.00;80.40
18365;DHT22;9309;52.126;11.616;2023-09-18T05:09:00;17.10;80.10
18365;DHT22;9309;52.126;11.616;2023-09-18T05:11:26;17.10;80.00
18365;DHT22;9309;52.126;11.616;2023-09-18T05:13:55;17.20;79.40
18365;DHT22;9309;52.126;11.616;2023-09-18T05:16:22;17.20;79.10
18365;DHT22;9309;52.126;11.616;2023-09-18T05:18:49;17.10;79.40
18365;DHT22;9309;52.126;11.616;2023-09-18T05:21:15;17.00;80.30
18365;DHT22;9309;52.126;11.616;2023-09-18T05:23:49;17.10;79.70
18365;DHT22;9309;52.126;11.616;2023-09-18T05:26:16;17.10;79.90
18365;DHT22;9309;52.126;11.616;2023-09-18T05:28:43;17.20;79.50
18365;DHT22;9309;52.126;11.616;2023-09-18T05:31:10;17.20;79.00
18365;DHT22;9309;52.126;11.616;2023-09-18T05:33:36;17.20;79.20
18365;DHT22;9309;52.126;11.616;2023-09-18T05:36:03;17.20;79.10
18365;DHT22;9309;52.126;11.616;2023-09-18T05:38:30;17.30;78.80
18365;DHT22;9309;52.126;11.616;2023-09-18T05:40:58;17.40;78.70
18365;DHT22;9309;52.126;11.616;2023-09-18T05:43:25;17.50;78.10
18365;DHT22;9309;52.126;11.616;2023-09-18T05:45:52;17.70;77.50
18365;DHT22;9309;52.126;11.616;2023-09-18T05:48:20;17.80;76.70
18365;DHT22;9309;52.126;11.616;2023-09-18T05:50:46;17.70;77.10
18365;DHT22;9309;52.126;11.616;2023-09-18T05:53:14;17.80;76.80
18365;DHT22;9309;52.126;11.616;2023-09-18T05:55:40;17.90;76.30
18365;DHT22;9309;52.126;11.616;2023-09-18T05:58:09;17.80;76.00
18365;DHT22;9309;52.126;11.616;2023-09-18T06:00:36;17.90;75.70
18365;DHT22;9309;52.126;11.616;2023-09-18T06:03:03;18.00;75.50
18365;DHT22;9309;52.126;11.616;2023-09-18T06:05:31;18.00;75.70
18365;DHT22;9309;52.126;11.616;2023-09-18T06:07:59;18.00;75.50
18365;DHT22;9309;52.126;11.616;2023-09-18T06:10:26;18.00;75.60
18365;DHT22;9309;52.126;11.616;2023-09-18T06:12:53;18.10;75.40
18365;DHT22;9309;52.126;11.616;2023-09-18T06:15:22;18.10;74.90
18365;DHT22;9309;52.126;11.616;2023-09-18T06:17:49;18.10;75.10
18365;DHT22;9309;52.126;11.616;2023-09-18T06:20:15;18.20;75.10
18365;DHT22;9309;52.126;11.616;2023-09-18T06:22:42;18.30;74.90
18365;DHT22;9309;52.126;11.616;2023-09-18T06:25:09;18.40;74.70
18365;DHT22;9309;52.126;11.616;2023-09-18T06:27:36;18.30;74.10
18365;DHT22;9309;52.126;11.616;2023-09-18T06:30:04;18.40;74.60
18365;DHT22;9309;52.126;11.616;2023-09-18T06:32:33;18.60;73.60
18365;DHT22;9309;52.126;11.616;2023-09-18T06:35:00;18.60;73.20
18365;DHT22;9309;52.126;11.616;2023-09-18T06:37:27;18.70;72.30
18365;DHT22;9309;52.126;11.616;2023-09-18T06:39:54;18.70;72.70
18365;DHT22;9309;52.126;11.616;2023-09-18T06:42:22;18.80;72.70
18365;DHT22;9309;52.126;11.616;2023-09-18T06:44:56;18.90;73.10
18365;DHT22;9309;52.126;11.616;2023-09-18T06:47:23;18.90;72.70
18365;DHT22;9309;52.126;11.616;2023-09-18T06:49:52;19.10;72.20
18365;DHT22;9309;52.126;11.616;2023-09-18T06:52:18;19.10;71.20
18365;DHT22;9309;52.126;11.616;2023-09-18T06:54:45;19.20;71.40
18365;DHT22;9309;52.126;11.616;2023-09-18T06:57:12;19.40;70.70
18365;DHT22;9309;52.126;11.616;2023-09-18T06:59:39;19.40;70.70
18365;DHT22;9309;52.126;11.616;2023-09-18T07:02:06;19.50;70.00
18365;DHT22;9309;52.126;11.616;2023-09-18T07:04:33;19.60;69.70
18365;DHT22;9309;52.126;11.616;2023-09-18T07:07:01;19.80;69.20
18365;DHT22;9309;52.126;11.616;2023-09-18T07:09:28;19.80;69.00
18365;DHT22;9309;52.126;11.616;2023-09-18T07:11:56;19.80;68.60
18365;DHT22;9309;52.126;11.616;2023-09-18T07:14:22;19.80;69.10
18365;DHT22;9309;52.126;11.616;2023-09-18T07:16:49;20.10;68.60
18365;DHT22;9309;52.126;11.616;2023-09-18T07:19:16;20.10;68.10
18365;DHT22;9309;52.126;11.616;2023-09-18T07:21:43;20.10;68.10
18365;DHT22;9309;52.126;11.616;2023-09-18T07:24:12;20.40;67.60
18365;DHT22;9309;52.126;11.616;2023-09-18T07:26:44;20.60;66.90
18365;DHT22;9309;52.126;11.616;2023-09-18T07:29:12;20.60;67.10
18365;DHT22;9309;52.126;11.616;2023-09-18T07:31:41;20.60;66.80
18365;DHT22;9309;52.126;11.616;2023-09-18T07:34:08;20.90;66.50
18365;DHT22;9309;52.126;11.616;2023-09-18T07:36:35;20.80;66.10
18365;DHT22;9309;52.126;11.616;2023-09-18T07:39:02;20.80;65.90
18365;DHT22;9309;52.126;11.616;2023-09-18T07:41:31;20.90;66.20
18365;DHT22;9309;52.126;11.616;2023-09-18T07:43:58;20.90;66.30
18365;DHT22;9309;52.126;11.616;2023-09-18T07:46:26;20.90;66.00
18365;DHT22;9309;52.126;11.616;2023-09-18T07:48:53;20.90;65.60
18365;DHT22;9309;52.126;11.616;2023-09-18T07:51:20;20.90;66.00
18365;DHT22;9309;52.126;11.616;2023-09-18T07:53:47;21.00;65.70
18365;DHT22;9309;52.126;11.616;2023-09-18T07:56:14;21.00;66.10
18365;DHT22;9309;52.126;11.616;2023-09-18T07:58:42;21.00;65.90
18365;DHT22;9309;52.126;11.616;2023-09-18T08:01:09;21.20;65.10
18365;DHT22;9309;52.126;11.616;2023-09-18T08:03:36;21.30;64.80
18365;DHT22;9309;52.126;11.616;2023-09-18T08:06:03;21.20;64.80
18365;DHT22;9309;52.126;11.616;2023-09-18T08:08:31;21.20;65.00
18365;DHT22;9309;52.126;11.616;2023-09-18T08:11:07;21.30;64.70
18365;DHT22;9309;52.126;11.616;2023-09-18T08:13:35;21.30;64.90
18365;DHT22;9309;52.126;11.616;2023-09-18T08:16:05;21.40;64.70
18365;DHT22;9309;52.126;11.616;2023-09-18T08:18:33;21.50;64.90
18365;DHT22;9309;52.126;11.616;2023-09-18T08:21:00;21.40;64.40
18365;DHT22;9309;52.126;11.616;2023-09-18T08:23:27;21.50;65.00
18365;DHT22;9309;52.126;11.616;2023-09-18T08:25:54;21.50;65.60
18365;DHT22;9309;52.126;11.616;2023-09-18T08:28:23;21.40;64.60
18365;DHT22;9309;52.126;11.616;2023-09-18T08:30:50;21.50;65.20
18365;DHT22;9309;52.126;11.616;2023-09-18T08:33:18;21.50;64.50
18365;DHT22;9309;52.126;11.616;2023-09-18T08:35:45;21.90;63.60
18365;DHT22;9309;52.126;11.616;2023-09-18T08:38:13;22.30;62.80
18365;DHT22;9309;52.126;11.616;2023-09-18T08:40:41;22.10;63.80
18365;DHT22;9309;52.126;11.616;2023-09-18T08:43:11;21.90;62.80
18365;DHT22;9309;52.126;11.616;2023-09-18T08:45:43;21.90;63.80
18365;DHT22;9309;52.126;11.616;2023-09-18T08:48:11;22.00;64.10
18365;DHT22;9309;52.126;11.616;2023-09-18T08:50:40;22.00;63.10
18365;DHT22;9309;52.126;11.616;2023-09-18T08:53:07;21.90;63.50
18365;DHT22;9309;52.126;11.616;2023-09-18T08:55:34;22.00;64.00
18365;DHT22;9309;52.126;11.616;2023-09-18T08:58:01;22.10;62.80
18365;DHT22;9309;52.126;11.616;2023-09-18T09:00:28;22.10;63.20
18365;DHT22;9309;52.126;11.616;2023-09-18T09:02:55;22.30;62.90
18365;DHT22;9309;52.126;11.616;2023-09-18T09:05:22;22.40;62.30
18365;DHT22;9309;52.126;11.616;2023-09-18T09:07:51;22.50;62.30
18365;DHT22;9309;52.126;11.616;2023-09-18T09:10:18;22.80;61.90
18365;DHT22;9309;52.126;11.616;2023-09-18T09:12:50;23.10;61.00
18365;DHT22;9309;52.126;11.616;2023-09-18T09:15:19;23.00;59.80
18365;DHT22;9309;52.126;11.616;2023-09-18T09:17:46;23.20;60.40
18365;DHT22;9309;52.126;11.616;2023-09-18T09:20:16;23.10;60.00
18365;DHT22;9309;52.126;11.616;2023-09-18T09:22:44;22.80;60.40
18365;DHT22;9309;52.126;11.616;2023-09-18T09:25:26;22.80;61.40
18365;DHT22;9309;52.126;11.616;2023-09-18T09:27:53;22.80;61.00
18365;DHT22;9309;52.126;11.616;2023-09-18T09:30:21;22.80;61.00
18365;DHT22;9309;52.126;11.616;2023-09-18T09:32:49;22.80;61.10
18365;DHT22;9309;52.126;11.616;2023-09-18T09:35:24;22.90;61.90
18365;DHT22;9309;52.126;11.616;2023-09-18T09:37:53;23.00;61.80
18365;DHT22;9309;52.126;11.616;2023-09-18T09:40:21;23.00;61.30
18365;DHT22;9309;52.126;11.616;2023-09-18T09:42:53;23.00;61.40
18365;DHT22;9309;52.126;11.616;2023-09-18T09:45:26;23.00;61.20
18365;DHT22;9309;52.126;11.616;2023-09-18T09:47:54;22.90;61.10
18365;DHT22;9309;52.126;11.616;2023-09-18T09:50:21;22.70;62.10
18365;DHT22;9309;52.126;11.616;2023-09-18T09:52:49;22.60;62.40
18365;DHT22;9309;52.126;11.616;2023-09-18T09:55:27;22.60;62.70
18365;DHT22;9309;52.126;11.616;2023-09-18T09:57:56;22.70;62.10
18365;DHT22;9309;52.126;11.616;2023-09-18T10:00:29;22.70;62.50
18365;DHT22;9309;52.126;11.616;2023-09-18T10:03:04;22.60;62.40
18365;DHT22;9309;52.126;11.616;2023-09-18T10:05:33;22.40;62.80
18365;DHT22;9309;52.126;11.616;2023-09-18T10:08:04;22.30;63.60
18365;DHT22;9309;52.126;11.616;2023-09-18T10:10:36;22.20;63.80
18365;DHT22;9309;52.126;11.616;2023-09-18T10:13:10;22.10;64.10
18365;DHT22;9309;52.126;11.616;2023-09-18T10:15:38;22.10;63.30
18365;DHT22;9309;52.126;11.616;2023-09-18T10:18:17;22.00;64.10
18365;DHT22;9309;52.126;11.616;2023-09-18T10:20:46;22.10;62.80
18365;DHT22;9309;52.126;11.616;2023-09-18T10:23:20;22.10;63.50
18365;DHT22;9309;52.126;11.616;2023-09-18T10:25:59;22.20;63.80
18365;DHT22;9309;52.126;11.616;2023-09-18T10:28:28;22.50;62.90
18365;DHT22;9309;52.126;11.616;2023-09-18T10:30:57;22.60;63.00
18365;DHT22;9309;52.126;11.616;2023-09-18T10:33:25;22.90;61.40
18365;DHT22;9309;52.126;11.616;2023-09-18T10:35:53;23.10;61.50
18365;DHT22;9309;52.126;11.616;2023-09-18T10:38:21;23.60;60.60
18365;DHT22;9309;52.126;11.616;2023-09-18T10:40:50;24.00;58.50
18365;DHT22;9309;52.126;11.616;2023-09-18T10:43:19;24.10;58.60
18365;DHT22;9309;52.126;11.616;2023-09-18T10:45:46;24.30;57.60
18365;DHT22;9309;52.126;11.616;2023-09-18T10:48:15;24.70;57.20
18365;DHT22;9309;52.126;11.616;2023-09-18T10:50:43;25.10;56.80
18365;DHT22;9309;52.126;11.616;2023-09-18T10:53:11;25.20;56.40
18365;DHT22;9309;52.126;11.616;2023-09-18T10:55:39;25.70;54.50
18365;DHT22;9309;52.126;11.616;2023-09-18T10:58:08;25.60;55.40
18365;DHT22;9309;52.126;11.616;2023-09-18T11:00:37;25.40;55.60
18365;DHT22;9309;52.126;11.616;2023-09-18T11:03:12;24.90;56.40
18365;DHT22;9309;52.126;11.616;2023-09-18T11:05:40;24.50;58.50
18365;DHT22;9309;52.126;11.616;2023-09-18T11:08:26;24.70;57.90
18365;DHT22;9309;52.126;11.616;2023-09-18T11:11:03;24.50;58.50
18365;DHT22;9309;52.126;11.616;2023-09-18T11:13:37;24.30;58.80
18365;DHT22;9309;52.126;11.616;2023-09-18T11:16:32;25.00;57.80
18365;DHT22;9309;52.126;11.616;2023-09-18T11:19:12;25.00;58.20
18365;DHT22;9309;52.126;11.616;2023-09-18T11:21:39;24.90;60.10
18365;DHT22;9309;52.126;11.616;2023-09-18T11:24:08;24.90;59.10
18365;DHT22;9309;52.126;11.616;2023-09-18T11:26:43;25.00;58.80
18365;DHT22;9309;52.126;11.616;2023-09-18T11:29:11;25.10;58.80
18365;DHT22;9309;52.126;11.616;2023-09-18T11:31:49;25.30;56.50
18365;DHT22;9309;52.126;11.616;2023-09-18T11:34:20;25.60;56.10
18365;DHT22;9309;52.126;11.616;2023-09-18T11:36:48;25.60;55.20
18365;DHT22;9309;52.126;11.616;2023-09-18T11:39:33;25.90;54.40
18365;DHT22;9309;52.126;11.616;2023-09-18T11:42:09;26.20;53.80
18365;DHT22;9309;52.126;11.616;2023-09-18T11:44:36;26.00;54.40
18365;DHT22;9309;52.126;11.616;2023-09-18T11:47:09;25.80;53.10
18365;DHT22;9309;52.126;11.616;2023-09-18T11:49:46;25.80;53.40
18365;DHT22;9309;52.126;11.616;2023-09-18T11:52:15;25.90;53.80
18365;DHT22;9309;52.126;11.616;2023-09-18T11:54:43;26.20;53.30
18365;DHT22;9309;52.126;11.616;2023-09-18T11:57:12;26.40;52.40
18365;DHT22;9309;52.126;11.616;2023-09-18T11:59:41;26.60;51.90
18365;DHT22;9309;52.126;11.616;2023-09-18T12:02:11;26.50;52.40
18365;DHT22;9309;52.126;11.616;2023-09-18T12:04:46;26.50;51.00
18365;DHT22;9309;52.126;11.616;2023-09-18T12:07:13;26.80;51.00
18365;DHT22;9309;52.126;11.616;2023-09-18T12:09:40;27.10;49.80
18365;DHT22;9309;52.126;11.616;2023-09-18T12:12:07;27.10;50.20
18365;DHT22;9309;52.126;11.616;2023-09-18T12:14:35;27.20;49.00
18365;DHT22;9309;52.126;11.616;2023-09-18T12:17:03;27.30;48.00
18365;DHT22;9309;52.126;11.616;2023-09-18T12:19:31;27.30;48.30
18365;DHT22;9309;52.126;11.616;2023-09-18T12:22:00;27.50;47.70
18365;DHT22;9309;52.126;11.616;2023-09-18T12:24:27;27.20;48.90
18365;DHT22;9309;52.126;11.616;2023-09-18T12:26:54;27.10;49.10
18365;DHT22;9309;52.126;11.616;2023-09-18T12:29:21;26.80;49.80
18365;DHT22;9309;52.126;11.616;2023-09-18T12:31:48;26.60;50.60
18365;DHT22;9309;52.126;11.616;2023-09-18T12:34:18;26.60;50.70
18365;DHT22;9309;52.126;11.616;2023-09-18T12:36:49;26.30;51.10
18365;DHT22;9309;52.126;11.616;2023-09-18T12:39:17;26.20;51.90
18365;DHT22;9309;52.126;11.616;2023-09-18T12:41:44;26.00;51.80
18365;DHT22;9309;52.126;11.616;2023-09-18T12:44:12;26.10;52.20
18365;DHT22;9309;52.126;11.616;2023-09-18T12:46:40;26.10;52.00
18365;DHT22;9309;52.126;11.616;2023-09-18T12:49:17;26.40;52.00
18365;DHT22;9309;52.126;11.616;2023-09-18T12:51:54;26.50;51.40
18365;DHT22;9309;52.126;11.616;2023-09-18T12:54:21;26.50;51.20
18365;DHT22;9309;52.126;11.616;2023-09-18T12:56:48;26.80;51.20
18365;DHT22;9309;52.126;11.616;2023-09-18T12:59:14;27.20;50.40
18365;DHT22;9309;52.126;11.616;2023-09-18T13:01:46;27.50;50.50
18365;DHT22;9309;52.126;11.616;2023-09-18T13:04:13;28.00;49.00
18365;DHT22;9309;52.126;11.616;2023-09-18T13:06:40;28.40;47.50
18365;DHT22;9309;52.126;11.616;2023-09-18T13:09:18;28.90;45.70
18365;DHT22;9309;52.126;11.616;2023-09-18T13:11:53;29.30;45.30
18365;DHT22;9309;52.126;11.616;2023-09-18T13:14:20;29.20;44.70
18365;DHT22;9309;52.126;11.616;2023-09-18T13:16:47;29.30;45.00
18365;DHT22;9309;52.126;11.616;2023-09-18T13:19:14;29.20;45.30
18365;DHT22;9309;52.126;11.616;2023-09-18T13:21:46;29.00;45.70
18365;DHT22;9309;52.126;11.616;2023-09-18T13:24:26;29.20;45.70
18365;DHT22;9309;52.126;11.616;2023-09-18T13:26:53;29.30;44.70
18365;DHT22;9309;52.126;11.616;2023-09-18T13:29:20;28.70;45.60
18365;DHT22;9309;52.126;11.616;2023-09-18T13:31:47;28.10;47.50
18365;DHT22;9309;52.126;11.616;2023-09-18T13:34:13;27.20;49.60
18365;DHT22;9309;52.126;11.616;2023-09-18T13:36:43;26.80;50.10
18365;DHT22;9309;52.126;11.616;2023-09-18T13:39:11;26.60;50.60
18365;DHT22;9309;52.126;11.616;2023-09-18T13:41:39;26.40;51.00
18365;DHT22;9309;52.126;11.616;2023-09-18T13:44:06;26.10;51.60
18365;DHT22;9309;52.126;11.616;2023-09-18T13:46:33;25.90;52.30
18365;DHT22;9309;52.126;11.616;2023-09-18T13:49:03;25.70;52.90
18365;DHT22;9309;52.126;11.616;2023-09-18T13:51:31;25.50;53.60
18365;DHT22;9309;52.126;11.616;2023-09-18T13:53:58;25.20;54.60
18365;DHT22;9309;52.126;11.616;2023-09-18T13:56:24;25.10;55.20
18365;DHT22;9309;52.126;11.616;2023-09-18T13:58:55;24.90;57.50
18365;DHT22;9309;52.126;11.616;2023-09-18T14:01:22;24.50;60.10
18365;DHT22;9309;52.126;11.616;2023-09-18T14:03:51;23.90;61.70
18365;DHT22;9309;52.126;11.616;2023-09-18T14:06:18;23.60;63.20
18365;DHT22;9309;52.126;11.616;2023-09-18T14:08:44;23.50;64.40
18365;DHT22;9309;52.126;11.616;2023-09-18T14:11:11;23.60;62.70
18365;DHT22;9309;52.126;11.616;2023-09-18T14:13:38;23.80;63.00
18365;DHT22;9309;52.126;11.616;2023-09-18T14:16:06;23.90;62.30
18365;DHT22;9309;52.126;11.616;2023-09-18T14:18:33;23.90;61.60
18365;DHT22;9309;52.126;11.616;2023-09-18T14:20:59;24.00;62.10
18365;DHT22;9309;52.126;11.616;2023-09-18T14:23:27;24.10;61.70
18365;DHT22;9309;52.126;11.616;2023-09-18T14:25:54;24.10;61.90
18365;DHT22;9309;52.126;11.616;2023-09-18T14:28:21;24.10;61.70
18365;DHT22;9309;52.126;11.616;2023-09-18T14:30:47;24.10;61.20
18365;DHT22;9309;52.126;11.616;2023-09-18T14:33:15;24.00;61.10
18365;DHT22;9309;52.126;11.616;2023-09-18T14:35:42;24.10;61.40
18365;DHT22;9309;52.126;11.616;2023-09-18T14:38:09;24.10;62.10
18365;DHT22;9309;52.126;11.616;2023-09-18T14:40:36;24.30;61.80
18365;DHT22;9309;52.126;11.616;2023-09-18T14:43:03;24.20;60.60
18365;DHT22;9309;52.126;11.616;2023-09-18T14:45:30;24.20;61.40
18365;DHT22;9309;52.126;11.616;2023-09-18T14:47:57;24.40;60.60
18365;DHT22;9309;52.126;11.616;2023-09-18T14:50:26;24.50;60.80
18365;DHT22;9309;52.126;11.616;2023-09-18T14:52:53;24.40;60.20
18365;DHT22;9309;52.126;11.616;2023-09-18T14:55:20;24.30;59.90
18365;DHT22;9309;52.126;11.616;2023-09-18T14:57:46;24.30;60.00
18365;DHT22;9309;52.126;11.616;2023-09-18T15:00:14;24.30;60.50
18365;DHT22;9309;52.126;11.616;2023-09-18T15:02:41;24.20;59.80
18365;DHT22;9309;52.126;11.616;2023-09-18T15:05:08;24.20;60.00
18365;DHT22;9309;52.126;11.616;2023-09-18T15:07:39;24.20;60.10
18365;DHT22;9309;52.126;11.616;2023-09-18T15:10:06;24.20;58.80
18365;DHT22;9309;52.126;11.616;2023-09-18T15:12:34;24.10;59.20
18365;DHT22;9309;52.126;11.616;2023-09-18T15:15:00;24.00;59.30
18365;DHT22;9309;52.126;11.616;2023-09-18T15:17:27;24.00;59.40
18365;DHT22;9309;52.126;11.616;2023-09-18T15:19:54;23.90;59.40
18365;DHT22;9309;52.126;11.616;2023-09-18T15:22:21;23.90;60.40
18365;DHT22;9309;52.126;11.616;2023-09-18T15:24:49;23.80;59.80
18365;DHT22;9309;52.126;11.616;2023-09-18T15:27:16;23.90;59.60
18365;DHT22;9309;52.126;11.616;2023-09-18T15:29:43;24.00;59.40
18365;DHT22;9309;52.126;11.616;2023-09-18T15:32:10;24.10;59.80
18365;DHT22;9309;52.126;11.616;2023-09-18T15:34:36;24.00;59.30
18365;DHT22;9309;52.126;11.616;2023-09-18T15:37:03;24.00;59.80